sensor_id;sensor_type;location;lat;lon;timestamp;pressure;altitude;pressure_sealevel;temperature;humidity
69622;BME280;56841;55.964;37.674;2023-08-06T00:00:42;99815.19;;;20.76;100.00
69622;BME280;56841;55.964;37.674;2023-08-06T00:03:08;99814.00;;;20.72;100.00
69622;BME280;56841;55.964;37.674;2023-08-06T00:05:34;99828.00;;;20.74;100.00
69622;BME280;56841;55.964;37.674;2023-08-06T00:07:59;99822.63;;;20.74;100.00
69622;BME280;56841;55.964;37.674;2023-08-06T00:10:25;99816.53;;;20.67;100.00
69622;BME280;56841;55.964;37.674;2023-08-06T00:12:51;99819.78;;;20.57;100.00
69622;BME280;56841;55.964;37.674;2023-08-06T00:15:17;99817.25;;;20.62;100.00
69622;BME280;56841;55.964;37.674;2023-08-06T00:17:43;99819.13;;;20.62;100.00
69622;BME280;56841;55.964;37.674;2023-08-06T00:20:08;99817.09;;;20.57;100.00
69622;BME280;56841;55.964;37.674;2023-08-06T00:22:36;99814.19;;;20.58;100.00
69622;BME280;56841;55.964;37.674;2023-08-06T00:25:02;99805.84;;;20.48;100.00
69622;BME280;56841;55.964;37.674;2023-08-06T00:27:32;99810.97;;;20.50;100.00
69622;BME280;56841;55.964;37.674;2023-08-06T00:29:58;99815.31;;;20.51;100.00
69622;BME280;56841;55.964;37.674;2023-08-06T00:32:25;99816.34;;;20.50;100.00
69622;BME280;56841;55.964;37.674;2023-08-06T00:34:51;99818.91;;;20.45;100.00
69622;BME280;56841;55.964;37.674;2023-08-06T00:37:18;99815.31;;;20.51;100.00
69622;BME280;56841;55.964;37.674;2023-08-06T00:39:44;99820.06;;;20.49;100.00
69622;BME280;56841;55.964;37.674;2023-08-06T00:42:11;99829.19;;;20.48;100.00
69622;BME280;56841;55.964;37.674;2023-08-06T00:44:37;99826.34;;;20.43;100.00
69622;BME280;56841;55.964;37.674;2023-08-06T00:47:03;99833.94;;;20.46;100.00
69622;BME280;56841;55.964;37.674;2023-08-06T00:49:29;99827.06;;;20.50;100.00
69622;BME280;56841;55.964;37.674;2023-08-06T00:51:57;99822.91;;;20.54;100.00
69622;BME280;56841;55.964;37.674;2023-08-06T00:54:24;99832.53;;;20.62;100.00
69622;BME280;56841;55.964;37.674;2023-08-06T00:56:50;99827.97;;;20.62;100.00
69622;BME280;56841;55.964;37.674;2023-08-06T00:59:16;99823.06;;;20.59;100.00
69622;BME280;56841;55.964;37.674;2023-08-06T01:01:43;99832.13;;;20.58;100.00
69622;BME280;56841;55.964;37.674;2023-08-06T01:04:10;99825.03;;;20.52;100.00
69622;BME280;56841;55.964;37.674;2023-08-06T01:06:46;99829.38;;;20.46;100.00
69622;BME280;56841;55.964;37.674;2023-08-06T01:14:33;99833.22;;;20.39;100.00
69622;BME280;56841;55.964;37.674;2023-08-06T01:17:03;99829.81;;;20.31;100.00
69622;BME280;56841;55.964;37.674;2023-08-06T01:19:30;99825.09;;;20.27;100.00
69622;BME280;56841;55.964;37.674;2023-08-06T01:21:56;99832.31;;;20.26;100.00
69622;BME280;56841;55.964;37.674;2023-08-06T01:24:21;99831.88;;;20.29;100.00
69622;BME280;56841;55.964;37.674;2023-08-06T01:27:23;99826.97;;;20.26;100.00
69622;BME280;56841;55.964;37.674;2023-08-06T01:30:03;99823.47;;;20.26;100.00
69622;BME280;56841;55.964;37.674;2023-08-06T01:32:34;99834.78;;;20.28;100.00
69622;BME280;56841;55.964;37.674;2023-08-06T01:35:02;99828.69;;;20.21;100.00
69622;BME280;56841;55.964;37.674;2023-08-06T01:37:31;99837.75;;;20.20;100.00
69622;BME280;56841;55.964;37.674;2023-08-06T01:39:57;99838.94;;;20.24;100.00
69622;BME280;56841;55.964;37.674;2023-08-06T01:42:24;99843.13;;;20.20;100.00
69622;BME280;56841;55.964;37.674;2023-08-06T01:44:50;99852.34;;;20.24;100.00
69622;BME280;56841;55.964;37.674;2023-08-06T01:47:16;99847.38;;;20.27;100.00
69622;BME280;56841;55.964;37.674;2023-08-06T01:49:41;99848.03;;;20.23;100.00
69622;BME280;56841;55.964;37.674;2023-08-06T01:52:07;99852.06;;;20.13;100.00
69622;BME280;56841;55.964;37.674;2023-08-06T01:54:33;99854.25;;;20.05;100.00
69622;BME280;56841;55.964;37.674;2023-08-06T01:56:58;99855.66;;;20.07;100.00
69622;BME280;56841;55.964;37.674;2023-08-06T01:59:24;99861.41;;;20.11;100.00
69622;BME280;56841;55.964;37.674;2023-08-06T02:01:50;99859.28;;;20.13;100.00
69622;BME280;56841;55.964;37.674;2023-08-06T02:04:16;99873.31;;;20.15;100.00
69622;BME280;56841;55.964;37.674;2023-08-06T02:06:42;99870.19;;;20.18;100.00
69622;BME280;56841;55.964;37.674;2023-08-06T02:09:08;99867.31;;;20.13;100.00
69622;BME280;56841;55.964;37.674;2023-08-06T02:11:35;99873.00;;;20.05;100.00
69622;BME280;56841;55.964;37.674;2023-08-06T02:14:01;99868.91;;;20.02;100.00
69622;BME280;56841;55.964;37.674;2023-08-06T02:16:27;99868.38;;;20.12;100.00
69622;BME280;56841;55.964;37.674;2023-08-06T02:18:53;99870.19;;;20.18;100.00
69622;BME280;56841;55.964;37.674;2023-08-06T02:21:32;99867.84;;;20.22;100.00
69622;BME280;56841;55.964;37.674;2023-08-06T02:23:58;99866.97;;;20.28;100.00
69622;BME280;56841;55.964;37.674;2023-08-06T02:26:23;99864.56;;;20.38;100.00
69622;BME280;56841;55.964;37.674;2023-08-06T02:28:49;99867.19;;;20.45;100.00
69622;BME280;56841;55.964;37.674;2023-08-06T02:31:15;99865.66;;;20.49;100.00
69622;BME280;56841;55.964;37.674;2023-08-06T02:33:41;99865.00;;;20.53;100.00
69622;BME280;56841;55.964;37.674;2023-08-06T02:36:06;99866.44;;;20.56;100.00
69622;BME280;56841;55.964;37.674;2023-08-06T02:38:32;99867.97;;;20.64;100.00
69622;BME280;56841;55.964;37.674;2023-08-06T02:40:58;99861.91;;;20.68;100.00
69622;BME280;56841;55.964;37.674;2023-08-06T02:43:24;99874.66;;;20.73;100.00
69622;BME280;56841;55.964;37.674;2023-08-06T02:45:50;99872.56;;;20.75;100.00
69622;BME280;56841;55.964;37.674;2023-08-06T02:48:16;99868.59;;;20.77;100.00
69622;BME280;56841;55.964;37.674;2023-08-06T02:50:43;99864.56;;;20.87;100.00
69622;BME280;56841;55.964;37.674;2023-08-06T02:53:10;99865.28;;;20.94;100.00
69622;BME280;56841;55.964;37.674;2023-08-06T02:55:36;99862.72;;;20.99;100.00
69622;BME280;56841;55.964;37.674;2023-08-06T02:58:08;99869.84;;;21.05;100.00
69622;BME280;56841;55.964;37.674;2023-08-06T03:00:38;99868.13;;;21.11;100.00
69622;BME280;56841;55.964;37.674;2023-08-06T03:03:06;99867.88;;;21.12;100.00
69622;BME280;56841;55.964;37.674;2023-08-06T03:05:39;99865.69;;;21.21;100.00
69622;BME280;56841;55.964;37.674;2023-08-06T03:08:05;99866.41;;;21.28;100.00
69622;BME280;56841;55.964;37.674;2023-08-06T03:10:33;99865.50;;;21.34;100.00
69622;BME280;56841;55.964;37.674;2023-08-06T03:13:02;99871.00;;;21.39;100.00
69622;BME280;56841;55.964;37.674;2023-08-06T03:15:28;99870.53;;;21.42;100.00
69622;BME280;56841;55.964;37.674;2023-08-06T03:17:55;99867.38;;;21.45;100.00
69622;BME280;56841;55.964;37.674;2023-08-06T03:20:21;99871.03;;;21.51;100.00
69622;BME280;56841;55.964;37.674;2023-08-06T03:22:47;99878.38;;;21.56;100.00
69622;BME280;56841;55.964;37.674;2023-08-06T03:25:13;99866.91;;;21.60;100.00
69622;BME280;56841;55.964;37.674;2023-08-06T03:27:42;99866.69;;;21.73;100.00
69622;BME280;56841;55.964;37.674;2023-08-06T03:30:08;99863.06;;;21.80;100.00
69622;BME280;56841;55.964;37.674;2023-08-06T03:32:34;99855.47;;;21.88;100.00
69622;BME280;56841;55.964;37.674;2023-08-06T03:35:00;99861.53;;;21.95;100.00
69622;BME280;56841;55.964;37.674;2023-08-06T03:37:30;99870.38;;;22.08;100.00
69622;BME280;56841;55.964;37.674;2023-08-06T03:39:56;99864.31;;;22.12;100.00
69622;BME280;56841;55.964;37.674;2023-08-06T03:42:22;99863.69;;;22.22;100.00
69622;BME280;56841;55.964;37.674;2023-08-06T03:44:48;99865.22;;;22.30;100.00
69622;BME280;56841;55.964;37.674;2023-08-06T03:47:14;99866.47;;;22.39;100.00
69622;BME280;56841;55.964;37.674;2023-08-06T03:49:40;99860.94;;;22.45;100.00
69622;BME280;56841;55.964;37.674;2023-08-06T03:52:07;99869.22;;;22.56;99.98
69622;BME280;56841;55.964;37.674;2023-08-06T03:54:33;99860.44;;;22.60;99.61
69622;BME280;56841;55.964;37.674;2023-08-06T03:56:58;99863.31;;;22.70;98.67
69622;BME280;56841;55.964;37.674;2023-08-06T03:59:25;99857.28;;;22.80;97.81
69622;BME280;56841;55.964;37.674;2023-08-06T04:01:50;99857.13;;;22.87;97.22
69622;BME280;56841;55.964;37.674;2023-08-06T04:04:16;99851.16;;;22.97;96.61
69622;BME280;56841;55.964;37.674;2023-08-06T04:06:42;99854.50;;;23.04;95.73
69622;BME280;56841;55.964;37.674;2023-08-06T04:09:07;99863.00;;;23.12;95.02
69622;BME280;56841;55.964;37.674;2023-08-06T04:11:33;99848.63;;;23.24;94.65
69622;BME280;56841;55.964;37.674;2023-08-06T04:13:59;99855.00;;;23.34;93.13
69622;BME280;56841;55.964;37.674;2023-08-06T04:16:25;99847.88;;;23.45;92.18
69622;BME280;56841;55.964;37.674;2023-08-06T04:18:52;99851.81;;;23.54;91.71
69622;BME280;56841;55.964;37.674;2023-08-06T04:21:19;99852.44;;;23.61;89.80
69622;BME280;56841;55.964;37.674;2023-08-06T04:23:46;99854.00;;;23.74;88.84
69622;BME280;56841;55.964;37.674;2023-08-06T04:26:13;99866.81;;;23.84;87.82
69622;BME280;56841;55.964;37.674;2023-08-06T04:28:38;99863.69;;;23.92;87.41
69622;BME280;56841;55.964;37.674;2023-08-06T04:31:04;99855.72;;;24.02;86.33
69622;BME280;56841;55.964;37.674;2023-08-06T04:33:32;99858.31;;;24.14;86.01
69622;BME280;56841;55.964;37.674;2023-08-06T04:36:03;99859.50;;;24.23;83.27
69622;BME280;56841;55.964;37.674;2023-08-06T04:38:29;99860.97;;;24.31;83.24
69622;BME280;56841;55.964;37.674;2023-08-06T04:40:55;99851.59;;;24.39;82.54
69622;BME280;56841;55.964;37.674;2023-08-06T04:43:22;99851.44;;;24.45;81.39
69622;BME280;56841;55.964;37.674;2023-08-06T04:45:49;99850.19;;;24.58;78.81
69622;BME280;56841;55.964;37.674;2023-08-06T04:48:15;99852.97;;;24.63;77.65
69622;BME280;56841;55.964;37.674;2023-08-06T04:50:45;99858.47;;;24.73;78.41
69622;BME280;56841;55.964;37.674;2023-08-06T04:53:11;99850.97;;;24.80;78.29
69622;BME280;56841;55.964;37.674;2023-08-06T04:55:37;99857.53;;;24.90;80.00
69622;BME280;56841;55.964;37.674;2023-08-06T04:58:03;99847.28;;;24.92;76.90
69622;BME280;56841;55.964;37.674;2023-08-06T05:00:28;99845.75;;;25.01;76.50
69622;BME280;56841;55.964;37.674;2023-08-06T05:02:54;99848.75;;;25.04;75.95
69622;BME280;56841;55.964;37.674;2023-08-06T05:05:20;99843.47;;;25.15;74.28
69622;BME280;56841;55.964;37.674;2023-08-06T05:07:48;99840.28;;;25.23;73.89
69622;BME280;56841;55.964;37.674;2023-08-06T05:10:14;99842.75;;;25.29;74.10
69622;BME280;56841;55.964;37.674;2023-08-06T05:12:40;99854.50;;;25.40;74.43
69622;BME280;56841;55.964;37.674;2023-08-06T05:15:06;99842.66;;;25.51;73.41
69622;BME280;56841;55.964;37.674;2023-08-06T05:17:33;99841.09;;;25.61;73.82
69622;BME280;56841;55.964;37.674;2023-08-06T05:19:59;99837.38;;;25.72;73.84
69622;BME280;56841;55.964;37.674;2023-08-06T05:22:25;99839.59;;;25.80;72.83
69622;BME280;56841;55.964;37.674;2023-08-06T05:24:51;99833.72;;;25.88;72.49
69622;BME280;56841;55.964;37.674;2023-08-06T05:27:17;99822.38;;;25.96;72.10
69622;BME280;56841;55.964;37.674;2023-08-06T05:29:45;99827.03;;;26.06;71.77
69622;BME280;56841;55.964;37.674;2023-08-06T05:32:11;99833.00;;;26.13;71.50
69622;BME280;56841;55.964;37.674;2023-08-06T05:34:37;99822.75;;;26.26;70.64
69622;BME280;56841;55.964;37.674;2023-08-06T05:37:03;99827.13;;;26.37;69.27
69622;BME280;56841;55.964;37.674;2023-08-06T05:39:29;99832.53;;;26.42;68.15
69622;BME280;56841;55.964;37.674;2023-08-06T05:41:55;99833.91;;;26.44;68.47
69622;BME280;56841;55.964;37.674;2023-08-06T05:44:21;99833.41;;;26.53;68.16
69622;BME280;56841;55.964;37.674;2023-08-06T05:46:49;99834.25;;;26.63;68.34
69622;BME280;56841;55.964;37.674;2023-08-06T05:49:15;99836.69;;;26.70;69.03
69622;BME280;56841;55.964;37.674;2023-08-06T05:51:41;99832.38;;;26.79;67.70
69622;BME280;56841;55.964;37.674;2023-08-06T05:54:07;99827.50;;;26.86;66.68
69622;BME280;56841;55.964;37.674;2023-08-06T05:56:33;99818.84;;;26.89;64.62
69622;BME280;56841;55.964;37.674;2023-08-06T05:58:58;99827.78;;;26.95;64.86
69622;BME280;56841;55.964;37.674;2023-08-06T06:01:24;99822.09;;;27.02;65.25
69622;BME280;56841;55.964;37.674;2023-08-06T06:03:50;99818.56;;;27.11;65.34
69622;BME280;56841;55.964;37.674;2023-08-06T06:06:16;99819.94;;;27.19;64.90
69622;BME280;56841;55.964;37.674;2023-08-06T06:08:42;99817.22;;;27.29;65.53
69622;BME280;56841;55.964;37.674;2023-08-06T06:11:08;99815.59;;;27.38;63.02
69622;BME280;56841;55.964;37.674;2023-08-06T06:13:34;99829.69;;;27.40;62.29
69622;BME280;56841;55.964;37.674;2023-08-06T06:15:59;99822.63;;;27.50;61.93
69622;BME280;56841;55.964;37.674;2023-08-06T06:18:25;99825.31;;;27.60;62.51
69622;BME280;56841;55.964;37.674;2023-08-06T06:20:51;99819.31;;;27.68;60.41
69622;BME280;56841;55.964;37.674;2023-08-06T06:23:17;99819.84;;;27.70;59.76
69622;BME280;56841;55.964;37.674;2023-08-06T06:25:44;99814.97;;;27.67;59.54
69622;BME280;56841;55.964;37.674;2023-08-06T06:28:12;99813.38;;;27.76;60.83
69622;BME280;56841;55.964;37.674;2023-08-06T06:30:38;99813.84;;;27.88;60.03
69622;BME280;56841;55.964;37.674;2023-08-06T06:33:04;99820.88;;;27.95;60.33
69622;BME280;56841;55.964;37.674;2023-08-06T06:35:29;99819.22;;;28.04;60.54
69622;BME280;56841;55.964;37.674;2023-08-06T06:37:55;99819.19;;;28.14;60.31
69622;BME280;56841;55.964;37.674;2023-08-06T06:40:21;99810.19;;;28.19;59.21
69622;BME280;56841;55.964;37.674;2023-08-06T06:42:46;99819.13;;;28.24;59.06
69622;BME280;56841;55.964;37.674;2023-08-06T06:45:13;99817.72;;;28.32;58.55
69622;BME280;56841;55.964;37.674;2023-08-06T06:47:39;99816.06;;;28.36;58.41
69622;BME280;56841;55.964;37.674;2023-08-06T06:50:05;99810.34;;;28.43;59.72
69622;BME280;56841;55.964;37.674;2023-08-06T06:52:31;99817.38;;;28.49;59.78
69622;BME280;56841;55.964;37.674;2023-08-06T06:54:56;99813.03;;;28.48;58.81
69622;BME280;56841;55.964;37.674;2023-08-06T06:57:22;99811.41;;;28.52;58.22
69622;BME280;56841;55.964;37.674;2023-08-06T06:59:48;99811.88;;;28.59;58.79
69622;BME280;56841;55.964;37.674;2023-08-06T07:02:14;99809.38;;;28.68;58.53
69622;BME280;56841;55.964;37.674;2023-08-06T07:04:40;99813.97;;;28.72;57.07
69622;BME280;56841;55.964;37.674;2023-08-06T07:07:05;99806.88;;;28.76;56.64
69622;BME280;56841;55.964;37.674;2023-08-06T07:09:31;99802.16;;;28.87;55.86
69622;BME280;56841;55.964;37.674;2023-08-06T07:11:57;99806.19;;;28.95;56.00
69622;BME280;56841;55.964;37.674;2023-08-06T07:14:25;99805.59;;;29.03;56.81
69622;BME280;56841;55.964;37.674;2023-08-06T07:16:51;99806.94;;;29.05;56.64
69622;BME280;56841;55.964;37.674;2023-08-06T07:19:17;99800.41;;;29.07;55.04
69622;BME280;56841;55.964;37.674;2023-08-06T07:21:43;99797.38;;;29.13;55.11
69622;BME280;56841;55.964;37.674;2023-08-06T07:24:09;99796.25;;;29.14;56.15
69622;BME280;56841;55.964;37.674;2023-08-06T07:26:35;99790.16;;;29.27;55.51
69622;BME280;56841;55.964;37.674;2023-08-06T07:29:01;99800.69;;;29.34;56.14
69622;BME280;56841;55.964;37.674;2023-08-06T07:31:26;99799.81;;;29.39;55.89
69622;BME280;56841;55.964;37.674;2023-08-06T07:33:52;99794.91;;;29.41;55.38
69622;BME280;56841;55.964;37.674;2023-08-06T07:36:18;99790.50;;;29.45;54.50
69622;BME280;56841;55.964;37.674;2023-08-06T07:38:44;99787.22;;;29.48;53.67
69622;BME280;56841;55.964;37.674;2023-08-06T07:41:09;99792.00;;;29.56;53.04
69622;BME280;56841;55.964;37.674;2023-08-06T07:43:35;99782.75;;;29.57;52.48
69622;BME280;56841;55.964;37.674;2023-08-06T07:46:01;99780.31;;;29.56;51.54
69622;BME280;56841;55.964;37.674;2023-08-06T07:48:28;99780.00;;;29.62;52.03
69622;BME280;56841;55.964;37.674;2023-08-06T07:50:54;99778.84;;;29.68;52.08
69622;BME280;56841;55.964;37.674;2023-08-06T07:53:21;99775.72;;;29.80;52.34
69622;BME280;56841;55.964;37.674;2023-08-06T07:55:51;99781.50;;;29.73;51.23
69622;BME280;56841;55.964;37.674;2023-08-06T07:58:17;99781.16;;;29.80;50.30
69622;BME280;56841;55.964;37.674;2023-08-06T08:00:43;99781.97;;;29.81;50.62
69622;BME280;56841;55.964;37.674;2023-08-06T08:03:12;99776.97;;;29.88;51.16
69622;BME280;56841;55.964;37.674;2023-08-06T08:05:42;99778.25;;;29.95;51.48
69622;BME280;56841;55.964;37.674;2023-08-06T08:08:09;99782.00;;;29.99;50.64
69622;BME280;56841;55.964;37.674;2023-08-06T08:10:35;99777.06;;;30.02;50.22
69622;BME280;56841;55.964;37.674;2023-08-06T08:13:02;99767.81;;;30.03;49.82
69622;BME280;56841;55.964;37.674;2023-08-06T08:15:29;99768.91;;;30.02;50.85
69622;BME280;56841;55.964;37.674;2023-08-06T08:17:55;99771.63;;;30.02;50.79
69622;BME280;56841;55.964;37.674;2023-08-06T08:20:20;99764.41;;;30.11;51.11
69622;BME280;56841;55.964;37.674;2023-08-06T08:22:46;99771.69;;;30.15;51.21
69622;BME280;56841;55.964;37.674;2023-08-06T08:25:13;99758.38;;;30.14;50.35
69622;BME280;56841;55.964;37.674;2023-08-06T08:27:40;99764.63;;;30.14;49.59
69622;BME280;56841;55.964;37.674;2023-08-06T08:30:06;99765.16;;;30.16;49.58
69622;BME280;56841;55.964;37.674;2023-08-06T08:32:32;99768.66;;;30.22;50.12
69622;BME280;56841;55.964;37.674;2023-08-06T08:34:58;99767.19;;;30.30;50.25
69622;BME280;56841;55.964;37.674;2023-08-06T08:37:24;99761.59;;;30.40;50.57
69622;BME280;56841;55.964;37.674;2023-08-06T08:39:49;99747.88;;;30.45;51.19
69622;BME280;56841;55.964;37.674;2023-08-06T08:42:16;99748.53;;;30.56;50.77
69622;BME280;56841;55.964;37.674;2023-08-06T08:44:42;99749.31;;;30.56;49.88
69622;BME280;56841;55.964;37.674;2023-08-06T08:47:10;99747.13;;;30.58;49.15
69622;BME280;56841;55.964;37.674;2023-08-06T08:49:37;99747.00;;;30.50;48.91
69622;BME280;56841;55.964;37.674;2023-08-06T08:52:04;99738.75;;;30.55;50.09
69622;BME280;56841;55.964;37.674;2023-08-06T08:54:37;99749.06;;;30.58;50.91
69622;BME280;56841;55.964;37.674;2023-08-06T08:57:03;99744.84;;;30.65;50.00
69622;BME280;56841;55.964;37.674;2023-08-06T08:59:29;99745.41;;;30.62;50.45
69622;BME280;56841;55.964;37.674;2023-08-06T09:01:55;99744.25;;;30.68;50.01
69622;BME280;56841;55.964;37.674;2023-08-06T09:04:22;99733.28;;;30.74;49.69
69622;BME280;56841;55.964;37.674;2023-08-06T09:06:50;99746.03;;;30.78;49.28
69622;BME280;56841;55.964;37.674;2023-08-06T09:09:26;99744.53;;;30.86;48.67
69622;BME280;56841;55.964;37.674;2023-08-06T09:11:55;99736.38;;;30.67;47.49
69622;BME280;56841;55.964;37.674;2023-08-06T09:14:26;99743.06;;;30.56;47.73
69622;BME280;56841;55.964;37.674;2023-08-06T09:16:52;99754.03;;;30.69;48.50
69622;BME280;56841;55.964;37.674;2023-08-06T09:19:17;99737.53;;;30.80;48.42
69622;BME280;56841;55.964;37.674;2023-08-06T09:21:45;99734.72;;;30.85;47.79
69622;BME280;56841;55.964;37.674;2023-08-06T09:24:15;99739.28;;;30.89;47.13
69622;BME280;56841;55.964;37.674;2023-08-06T09:26:43;99746.25;;;30.96;47.99
69622;BME280;56841;55.964;37.674;2023-08-06T09:29:10;99740.31;;;31.07;48.11
69622;BME280;56841;55.964;37.674;2023-08-06T09:31:45;99734.97;;;31.16;47.39
69622;BME280;56841;55.964;37.674;2023-08-06T09:34:15;99730.00;;;31.04;47.61
69622;BME280;56841;55.964;37.674;2023-08-06T09:36:47;99732.47;;;31.20;48.23
69622;BME280;56841;55.964;37.674;2023-08-06T09:39:21;99717.72;;;31.21;48.06
69622;BME280;56841;55.964;37.674;2023-08-06T09:41:47;99724.69;;;31.27;48.14
69622;BME280;56841;55.964;37.674;2023-08-06T09:44:21;99712.28;;;31.34;48.90
69622;BME280;56841;55.964;37.674;2023-08-06T09:46:50;99701.66;;;31.19;47.23
69622;BME280;56841;55.964;37.674;2023-08-06T09:49:18;99713.88;;;31.22;47.38
69622;BME280;56841;55.964;37.674;2023-08-06T09:51:46;99715.50;;;31.23;47.76
69622;BME280;56841;55.964;37.674;2023-08-06T09:54:17;99711.25;;;31.30;47.33
69622;BME280;56841;55.964;37.674;2023-08-06T09:56:45;99709.75;;;31.38;47.15
69622;BME280;56841;55.964;37.674;2023-08-06T09:59:11;99703.41;;;31.43;47.03
69622;BME280;56841;55.964;37.674;2023-08-06T10:01:37;99708.66;;;31.53;46.03
69622;BME280;56841;55.964;37.674;2023-08-06T10:04:04;99694.22;;;31.52;44.96
69622;BME280;56841;55.964;37.674;2023-08-06T10:06:35;99701.06;;;31.63;46.05
69622;BME280;56841;55.964;37.674;2023-08-06T10:09:04;99691.53;;;31.75;46.42
69622;BME280;56841;55.964;37.674;2023-08-06T10:11:30;99688.69;;;31.80;46.16
69622;BME280;56841;55.964;37.674;2023-08-06T10:14:09;99688.69;;;31.80;46.56
69622;BME280;56841;55.964;37.674;2023-08-06T10:16:36;99682.41;;;31.93;46.44
69622;BME280;56841;55.964;37.674;2023-08-06T10:19:04;99686.53;;;32.04;45.08
69622;BME280;56841;55.964;37.674;2023-08-06T10:21:33;99685.41;;;32.05;44.76
69622;BME280;56841;55.964;37.674;2023-08-06T10:23:58;99686.97;;;31.98;45.24
69622;BME280;56841;55.964;37.674;2023-08-06T10:26:26;99681.69;;;32.01;44.57
69622;BME280;56841;55.964;37.674;2023-08-06T10:28:52;99672.19;;;31.85;45.38
69622;BME280;56841;55.964;37.674;2023-08-06T10:31:18;99670.50;;;31.89;45.58
69622;BME280;56841;55.964;37.674;2023-08-06T10:33:46;99671.38;;;31.98;45.23
69622;BME280;56841;55.964;37.674;2023-08-06T10:36:12;99666.00;;;32.07;45.12
69622;BME280;56841;55.964;37.674;2023-08-06T10:38:45;99664.06;;;32.07;45.23
69622;BME280;56841;55.964;37.674;2023-08-06T10:41:28;99669.47;;;32.21;44.43
69622;BME280;56841;55.964;37.674;2023-08-06T10:44:10;99667.91;;;32.29;44.61
69622;BME280;56841;55.964;37.674;2023-08-06T10:46:37;99665.69;;;32.31;44.69
69622;BME280;56841;55.964;37.674;2023-08-06T10:49:04;99661.66;;;32.28;44.40
69622;BME280;56841;55.964;37.674;2023-08-06T10:51:30;99664.88;;;32.30;45.07
69622;BME280;56841;55.964;37.674;2023-08-06T10:53:56;99654.13;;;32.34;45.16
69622;BME280;56841;55.964;37.674;2023-08-06T10:56:25;99660.72;;;32.33;44.92
69622;BME280;56841;55.964;37.674;2023-08-06T10:58:54;99654.44;;;32.32;44.47
69622;BME280;56841;55.964;37.674;2023-08-06T11:01:24;99654.25;;;32.29;44.11
69622;BME280;56841;55.964;37.674;2023-08-06T11:03:50;99651.72;;;32.32;44.71
69622;BME280;56841;55.964;37.674;2023-08-06T11:06:20;99662.50;;;32.38;44.94
69622;BME280;56841;55.964;37.674;2023-08-06T11:08:54;99652.50;;;32.33;44.25
69622;BME280;56841;55.964;37.674;2023-08-06T11:11:21;99647.22;;;32.37;44.92
69622;BME280;56841;55.964;37.674;2023-08-06T11:13:49;99639.75;;;32.42;44.21
69622;BME280;56841;55.964;37.674;2023-08-06T11:16:17;99643.34;;;32.51;44.85
69622;BME280;56841;55.964;37.674;2023-08-06T11:18:44;99647.34;;;32.45;44.59
69622;BME280;56841;55.964;37.674;2023-08-06T11:21:11;99637.06;;;32.51;44.69
69622;BME280;56841;55.964;37.674;2023-08-06T11:23:42;99630.22;;;32.40;43.04
69622;BME280;56841;55.964;37.674;2023-08-06T11:26:11;99635.66;;;32.31;43.97
69622;BME280;56841;55.964;37.674;2023-08-06T11:28:37;99647.41;;;32.40;44.46
69622;BME280;56841;55.964;37.674;2023-08-06T11:31:03;99643.72;;;32.59;43.41
69622;BME280;56841;55.964;37.674;2023-08-06T11:33:29;99647.88;;;32.56;43.72
69622;BME280;56841;55.964;37.674;2023-08-06T11:35:57;99632.97;;;32.62;43.36
69622;BME280;56841;55.964;37.674;2023-08-06T11:38:28;99638.78;;;32.69;43.23
69622;BME280;56841;55.964;37.674;2023-08-06T11:40:55;99625.69;;;32.58;43.63
69622;BME280;56841;55.964;37.674;2023-08-06T11:43:21;99629.69;;;32.51;42.97
69622;BME280;56841;55.964;37.674;2023-08-06T11:45:49;99624.56;;;32.59;43.50
69622;BME280;56841;55.964;37.674;2023-08-06T11:48:16;99633.75;;;32.63;43.98
69622;BME280;56841;55.964;37.674;2023-08-06T11:50:44;99633.13;;;32.66;43.89
69622;BME280;56841;55.964;37.674;2023-08-06T11:53:13;99630.59;;;32.78;43.20
69622;BME280;56841;55.964;37.674;2023-08-06T11:55:40;99623.41;;;32.91;42.72
69622;BME280;56841;55.964;37.674;2023-08-06T11:58:06;99621.78;;;32.81;42.63
69622;BME280;56841;55.964;37.674;2023-08-06T12:00:32;99614.88;;;32.92;42.13
69622;BME280;56841;55.964;37.674;2023-08-06T12:02:58;99608.78;;;33.35;41.47
69622;BME280;56841;55.964;37.674;2023-08-06T12:05:31;99613.59;;;34.98;39.08
69622;BME280;56841;55.964;37.674;2023-08-06T12:08:02;99613.09;;;36.51;36.51
69622;BME280;56841;55.964;37.674;2023-08-06T12:10:30;99609.91;;;37.47;34.37
69622;BME280;56841;55.964;37.674;2023-08-06T12:12:56;99599.66;;;38.60;32.02
69622;BME280;56841;55.964;37.674;2023-08-06T12:15:22;99604.63;;;39.38;30.96
69622;BME280;56841;55.964;37.674;2023-08-06T12:17:48;99594.94;;;40.21;30.25
69622;BME280;56841;55.964;37.674;2023-08-06T12:20:14;99600.34;;;40.83;28.55
69622;BME280;56841;55.964;37.674;2023-08-06T12:22:40;99597.22;;;41.68;27.74
69622;BME280;56841;55.964;37.674;2023-08-06T12:25:08;99590.47;;;41.69;27.25
69622;BME280;56841;55.964;37.674;2023-08-06T12:27:35;99591.66;;;41.38;27.51
69622;BME280;56841;55.964;37.674;2023-08-06T12:30:01;99586.44;;;41.93;27.00
69622;BME280;56841;55.964;37.674;2023-08-06T12:32:34;99589.06;;;42.20;26.26
69622;BME280;56841;55.964;37.674;2023-08-06T12:35:00;99590.94;;;42.08;26.44
69622;BME280;56841;55.964;37.674;2023-08-06T12:37:26;99582.75;;;42.19;26.25
69622;BME280;56841;55.964;37.674;2023-08-06T12:39:53;99578.59;;;41.38;27.08
69622;BME280;56841;55.964;37.674;2023-08-06T12:42:18;99575.22;;;40.69;28.25
69622;BME280;56841;55.964;37.674;2023-08-06T12:44:45;99570.94;;;40.75;28.15
69622;BME280;56841;55.964;37.674;2023-08-06T12:47:11;99577.41;;;41.39;27.05
69622;BME280;56841;55.964;37.674;2023-08-06T12:49:36;99574.38;;;42.60;25.77
69622;BME280;56841;55.964;37.674;2023-08-06T12:52:02;99570.47;;;41.53;25.87